sensor_id;sensor_type;location;lat;lon;timestamp;P1;P2;P0
47705;PMS5003;33471;52.104;1.318;2023-03-05T00:02:15;27;24;
47705;PMS5003;33471;52.104;1.318;2023-03-05T00:04:42;24;24;
47705;PMS5003;33471;52.104;1.318;2023-03-05T00:07:09;23;23;
47705;PMS5003;33471;52.104;1.318;2023-03-05T00:09:36;21;21;
47705;PMS5003;33471;52.104;1.318;2023-03-05T00:12:04;23;22;
47705;PMS5003;33471;52.104;1.318;2023-03-05T00:14:31;26;25;
47705;PMS5003;33471;52.104;1.318;2023-03-05T00:16:59;25;25;
47705;PMS5003;33471;52.104;1.318;2023-03-05T00:19:27;22;19;
47705;PMS5003;33471;52.104;1.318;2023-03-05T00:21:54;29;29;
47705;PMS5003;33471;52.104;1.318;2023-03-05T00:24:22;32;30;
47705;PMS5003;33471;52.104;1.318;2023-03-05T00:26:49;40;35;
47705;PMS5003;33471;52.104;1.318;2023-03-05T00:29:18;30;29;
47705;PMS5003;33471;52.104;1.318;2023-03-05T00:31:46;30;28;
47705;PMS5003;33471;52.104;1.318;2023-03-05T00:34:16;31;31;
47705;PMS5003;33471;52.104;1.318;2023-03-05T00:36:45;30;27;
47705;PMS5003;33471;52.104;1.318;2023-03-05T00:39:14;32;29;
47705;PMS5003;33471;52.104;1.318;2023-03-05T00:41:43;35;35;
47705;PMS5003;33471;52.104;1.318;2023-03-05T00:44:10;31;27;
47705;PMS5003;33471;52.104;1.318;2023-03-05T00:46:38;31;28;
47705;PMS5003;33471;52.104;1.318;2023-03-05T00:49:05;34;31;
47705;PMS5003;33471;52.104;1.318;2023-03-05T00:51:33;30;30;
47705;PMS5003;33471;52.104;1.318;2023-03-05T00:54:00;35;35;
47705;PMS5003;33471;52.104;1.318;2023-03-05T00:56:28;28;28;
47705;PMS5003;33471;52.104;1.318;2023-03-05T00:58:56;36;34;
47705;PMS5003;33471;52.104;1.318;2023-03-05T01:01:23;36;32;
47705;PMS5003;33471;52.104;1.318;2023-03-05T01:03:51;36;34;
47705;PMS5003;33471;52.104;1.318;2023-03-05T01:06:18;35;28;
47705;PMS5003;33471;52.104;1.318;2023-03-05T01:08:46;38;35;
47705;PMS5003;33471;52.104;1.318;2023-03-05T01:11:14;27;26;
47705;PMS5003;33471;52.104;1.318;2023-03-05T01:13:42;35;32;
47705;PMS5003;33471;52.104;1.318;2023-03-05T01:16:09;32;30;
47705;PMS5003;33471;52.104;1.318;2023-03-05T01:18:36;33;30;
47705;PMS5003;33471;52.104;1.318;2023-03-05T01:21:04;34;30;
47705;PMS5003;33471;52.104;1.318;2023-03-05T01:23:32;30;28;
47705;PMS5003;33471;52.104;1.318;2023-03-05T01:25:59;36;33;
47705;PMS5003;33471;52.104;1.318;2023-03-05T01:28:26;35;31;
47705;PMS5003;33471;52.104;1.318;2023-03-05T01:30:54;36;33;
47705;PMS5003;33471;52.104;1.318;2023-03-05T01:33:21;36;34;
47705;PMS5003;33471;52.104;1.318;2023-03-05T01:35:48;29;27;
47705;PMS5003;33471;52.104;1.318;2023-03-05T01:38:16;34;32;
47705;PMS5003;33471;52.104;1.318;2023-03-05T01:40:44;38;32;
47705;PMS5003;33471;52.104;1.318;2023-03-05T01:43:20;38;33;
47705;PMS5003;33471;52.104;1.318;2023-03-05T01:46:25;36;34;
47705;PMS5003;33471;52.104;1.318;2023-03-05T01:49:00;38;34;
47705;PMS5003;33471;52.104;1.318;2023-03-05T01:51:37;33;32;
47705;PMS5003;33471;52.104;1.318;2023-03-05T01:54:08;38;33;
47705;PMS5003;33471;52.104;1.318;2023-03-05T01:56:37;40;32;
47705;PMS5003;33471;52.104;1.318;2023-03-05T01:59:05;42;38;
47705;PMS5003;33471;52.104;1.318;2023-03-05T02:01:35;32;31;
47705;PMS5003;33471;52.104;1.318;2023-03-05T02:04:05;40;40;
47705;PMS5003;33471;52.104;1.318;2023-03-05T02:06:35;34;30;
47705;PMS5003;33471;52.104;1.318;2023-03-05T02:09:04;40;36;
47705;PMS5003;33471;52.104;1.318;2023-03-05T02:11:32;30;30;
47705;PMS5003;33471;52.104;1.318;2023-03-05T02:14:01;34;33;
47705;PMS5003;33471;52.104;1.318;2023-03-05T02:16:29;33;33;
47705;PMS5003;33471;52.104;1.318;2023-03-05T02:18:57;25;24;
47705;PMS5003;33471;52.104;1.318;2023-03-05T02:21:26;34;33;
47705;PMS5003;33471;52.104;1.318;2023-03-05T02:23:55;40;34;
47705;PMS5003;33471;52.104;1.318;2023-03-05T02:26:22;37;35;
47705;PMS5003;33471;52.104;1.318;2023-03-05T02:28:49;34;30;
47705;PMS5003;33471;52.104;1.318;2023-03-05T02:31:23;32;29;
47705;PMS5003;33471;52.104;1.318;2023-03-05T02:33:52;38;38;
47705;PMS5003;33471;52.104;1.318;2023-03-05T02:36:20;35;34;
47705;PMS5003;33471;52.104;1.318;2023-03-05T02:38:48;38;35;
47705;PMS5003;33471;52.104;1.318;2023-03-05T02:41:15;36;34;
47705;PMS5003;33471;52.104;1.318;2023-03-05T02:43:42;41;35;
47705;PMS5003;33471;52.104;1.318;2023-03-05T02:46:10;32;32;
47705;PMS5003;33471;52.104;1.318;2023-03-05T02:48:37;32;29;
47705;PMS5003;33471;52.104;1.318;2023-03-05T02:51:04;35;33;
47705;PMS5003;33471;52.104;1.318;2023-03-05T02:53:33;37;31;
47705;PMS5003;33471;52.104;1.318;2023-03-05T02:56:01;31;31;
47705;PMS5003;33471;52.104;1.318;2023-03-05T02:58:29;39;35;
47705;PMS5003;33471;52.104;1.318;2023-03-05T03:00:56;34;31;
47705;PMS5003;33471;52.104;1.318;2023-03-05T03:03:23;36;32;
47705;PMS5003;33471;52.104;1.318;2023-03-05T03:05:51;31;31;
47705;PMS5003;33471;52.104;1.318;2023-03-05T03:08:19;34;33;
47705;PMS5003;33471;52.104;1.318;2023-03-05T03:10:46;37;34;
47705;PMS5003;33471;52.104;1.318;2023-03-05T03:13:14;38;33;
47705;PMS5003;33471;52.104;1.318;2023-03-05T03:15:41;36;33;
47705;PMS5003;33471;52.104;1.318;2023-03-05T03:18:08;37;35;
47705;PMS5003;33471;52.104;1.318;2023-03-05T03:20:36;33;29;
47705;PMS5003;33471;52.104;1.318;2023-03-05T03:23:04;32;29;
47705;PMS5003;33471;52.104;1.318;2023-03-05T03:25:32;31;29;
47705;PMS5003;33471;52.104;1.318;2023-03-05T03:28:00;30;30;
47705;PMS5003;33471;52.104;1.318;2023-03-05T03:30:27;30;30;
47705;PMS5003;33471;52.104;1.318;2023-03-05T03:32:54;31;31;
47705;PMS5003;33471;52.104;1.318;2023-03-05T03:35:21;39;35;
47705;PMS5003;33471;52.104;1.318;2023-03-05T03:37:49;31;28;
47705;PMS5003;33471;52.104;1.318;2023-03-05T03:40:16;35;33;
47705;PMS5003;33471;52.104;1.318;2023-03-05T03:42:44;38;32;
47705;PMS5003;33471;52.104;1.318;2023-03-05T03:45:12;28;27;
47705;PMS5003;33471;52.104;1.318;2023-03-05T03:47:39;33;29;
47705;PMS5003;33471;52.104;1.318;2023-03-05T03:50:07;32;30;
47705;PMS5003;33471;52.104;1.318;2023-03-05T03:52:35;36;34;
47705;PMS5003;33471;52.104;1.318;2023-03-05T03:55:02;30;26;
47705;PMS5003;33471;52.104;1.318;2023-03-05T03:57:30;32;28;
47705;PMS5003;33471;52.104;1.318;2023-03-05T03:59:57;30;30;
47705;PMS5003;33471;52.104;1.318;2023-03-05T04:02:25;34;33;
47705;PMS5003;33471;52.104;1.318;2023-03-05T04:04:53;30;28;
47705;PMS5003;33471;52.104;1.318;2023-03-05T04:07:20;28;26;
47705;PMS5003;33471;52.104;1.318;2023-03-05T04:09:47;30;28;
47705;PMS5003;33471;52.104;1.318;2023-03-05T04:12:16;31;30;
47705;PMS5003;33471;52.104;1.318;2023-03-05T04:14:44;36;31;
47705;PMS5003;33471;52.104;1.318;2023-03-05T04:17:11;31;24;
47705;PMS5003;33471;52.104;1.318;2023-03-05T04:19:39;33;31;
47705;PMS5003;33471;52.104;1.318;2023-03-05T04:22:08;35;35;
47705;PMS5003;33471;52.104;1.318;2023-03-05T04:24:36;40;34;
47705;PMS5003;33471;52.104;1.318;2023-03-05T04:27:03;31;30;
47705;PMS5003;33471;52.104;1.318;2023-03-05T04:29:31;32;29;
47705;PMS5003;33471;52.104;1.318;2023-03-05T04:31:58;28;27;
47705;PMS5003;33471;52.104;1.318;2023-03-05T04:34:26;28;28;
47705;PMS5003;33471;52.104;1.318;2023-03-05T04:36:53;25;25;
47705;PMS5003;33471;52.104;1.318;2023-03-05T04:39:20;34;32;
47705;PMS5003;33471;52.104;1.318;2023-03-05T04:41:47;33;29;
47705;PMS5003;33471;52.104;1.318;2023-03-05T04:44:15;32;29;
47705;PMS5003;33471;52.104;1.318;2023-03-05T04:46:42;36;33;
47705;PMS5003;33471;52.104;1.318;2023-03-05T04:49:10;30;29;
47705;PMS5003;33471;52.104;1.318;2023-03-05T04:51:37;41;35;
47705;PMS5003;33471;52.104;1.318;2023-03-05T04:54:04;36;34;
47705;PMS5003;33471;52.104;1.318;2023-03-05T04:56:31;28;26;
47705;PMS5003;33471;52.104;1.318;2023-03-05T04:58:59;32;30;
47705;PMS5003;33471;52.104;1.318;2023-03-05T05:01:26;41;34;
47705;PMS5003;33471;52.104;1.318;2023-03-05T05:03:54;35;32;
47705;PMS5003;33471;52.104;1.318;2023-03-05T05:06:21;36;32;
47705;PMS5003;33471;52.104;1.318;2023-03-05T05:08:48;38;37;
47705;PMS5003;33471;52.104;1.318;2023-03-05T05:11:15;34;32;
47705;PMS5003;33471;52.104;1.318;2023-03-05T05:13:43;41;37;
47705;PMS5003;33471;52.104;1.318;2023-03-05T05:16:10;37;32;
47705;PMS5003;33471;52.104;1.318;2023-03-05T05:18:38;35;32;
47705;PMS5003;33471;52.104;1.318;2023-03-05T05:21:06;32;32;
47705;PMS5003;33471;52.104;1.318;2023-03-05T05:23:35;32;31;
47705;PMS5003;33471;52.104;1.318;2023-03-05T05:26:02;35;34;
47705;PMS5003;33471;52.104;1.318;2023-03-05T05:28:32;37;33;
47705;PMS5003;33471;52.104;1.318;2023-03-05T05:31:05;36;31;
47705;PMS5003;33471;52.104;1.318;2023-03-05T05:33:32;32;32;
47705;PMS5003;33471;52.104;1.318;2023-03-05T05:36:01;35;32;
47705;PMS5003;33471;52.104;1.318;2023-03-05T05:38:29;38;33;
47705;PMS5003;33471;52.104;1.318;2023-03-05T05:41:00;31;31;
47705;PMS5003;33471;52.104;1.318;2023-03-05T05:43:29;32;31;
47705;PMS5003;33471;52.104;1.318;2023-03-05T05:45:58;39;38;
47705;PMS5003;33471;52.104;1.318;2023-03-05T05:48:26;35;34;
47705;PMS5003;33471;52.104;1.318;2023-03-05T05:50:54;41;35;
47705;PMS5003;33471;52.104;1.318;2023-03-05T05:53:21;41;37;
47705;PMS5003;33471;52.104;1.318;2023-03-05T05:55:49;36;33;
47705;PMS5003;33471;52.104;1.318;2023-03-05T05:58:16;36;34;
47705;PMS5003;33471;52.104;1.318;2023-03-05T06:00:43;34;31;
47705;PMS5003;33471;52.104;1.318;2023-03-05T06:03:10;39;36;
47705;PMS5003;33471;52.104;1.318;2023-03-05T06:05:39;29;29;
47705;PMS5003;33471;52.104;1.318;2023-03-05T06:08:07;40;39;
47705;PMS5003;33471;52.104;1.318;2023-03-05T06:10:35;36;30;
47705;PMS5003;33471;52.104;1.318;2023-03-05T06:13:02;47;47;
47705;PMS5003;33471;52.104;1.318;2023-03-05T06:15:29;39;38;
47705;PMS5003;33471;52.104;1.318;2023-03-05T06:17:57;35;34;
47705;PMS5003;33471;52.104;1.318;2023-03-05T06:20:24;35;33;
47705;PMS5003;33471;52.104;1.318;2023-03-05T06:22:52;36;32;
47705;PMS5003;33471;52.104;1.318;2023-03-05T06:25:19;34;31;
47705;PMS5003;33471;52.104;1.318;2023-03-05T06:27:46;36;36;
47705;PMS5003;33471;52.104;1.318;2023-03-05T06:30:14;40;39;
47705;PMS5003;33471;52.104;1.318;2023-03-05T06:30:15;40;39;
47705;PMS5003;33471;52.104;1.318;2023-03-05T06:32:42;33;32;
47705;PMS5003;33471;52.104;1.318;2023-03-05T06:35:09;37;31;
47705;PMS5003;33471;52.104;1.318;2023-03-05T06:37:36;37;35;
47705;PMS5003;33471;52.104;1.318;2023-03-05T06:40:04;35;35;
47705;PMS5003;33471;52.104;1.318;2023-03-05T06:42:33;40;38;
47705;PMS5003;33471;52.104;1.318;2023-03-05T06:45:00;38;34;
47705;PMS5003;33471;52.104;1.318;2023-03-05T06:47:27;34;31;
47705;PMS5003;33471;52.104;1.318;2023-03-05T06:49:54;45;44;
47705;PMS5003;33471;52.104;1.318;2023-03-05T06:52:22;50;44;
47705;PMS5003;33471;52.104;1.318;2023-03-05T06:54:49;36;35;
47705;PMS5003;33471;52.104;1.318;2023-03-05T06:57:17;45;45;
47705;PMS5003;33471;52.104;1.318;2023-03-05T06:59:44;67;63;
47705;PMS5003;33471;52.104;1.318;2023-03-05T07:02:12;64;63;
47705;PMS5003;33471;52.104;1.318;2023-03-05T07:04:39;59;51;
47705;PMS5003;33471;52.104;1.318;2023-03-05T07:07:06;43;39;
47705;PMS5003;33471;52.104;1.318;2023-03-05T07:09:33;38;36;
47705;PMS5003;33471;52.104;1.318;2023-03-05T07:12:00;45;40;
47705;PMS5003;33471;52.104;1.318;2023-03-05T07:14:27;44;44;
47705;PMS5003;33471;52.104;1.318;2023-03-05T07:16:55;38;36;
47705;PMS5003;33471;52.104;1.318;2023-03-05T07:19:22;39;37;
47705;PMS5003;33471;52.104;1.318;2023-03-05T07:21:49;39;39;
47705;PMS5003;33471;52.104;1.318;2023-03-05T07:24:16;40;38;
47705;PMS5003;33471;52.104;1.318;2023-03-05T07:26:43;36;36;
47705;PMS5003;33471;52.104;1.318;2023-03-05T07:29:10;46;43;
47705;PMS5003;33471;52.104;1.318;2023-03-05T07:31:37;42;40;
47705;PMS5003;33471;52.104;1.318;2023-03-05T07:34:04;40;36;
47705;PMS5003;33471;52.104;1.318;2023-03-05T07:36:31;48;44;
47705;PMS5003;33471;52.104;1.318;2023-03-05T07:38:58;66;62;
47705;PMS5003;33471;52.104;1.318;2023-03-05T07:41:26;39;38;
47705;PMS5003;33471;52.104;1.318;2023-03-05T07:43:53;38;35;
47705;PMS5003;33471;52.104;1.318;2023-03-05T07:46:22;48;45;
47705;PMS5003;33471;52.104;1.318;2023-03-05T07:48:51;46;42;
47705;PMS5003;33471;52.104;1.318;2023-03-05T07:51:19;45;41;
47705;PMS5003;33471;52.104;1.318;2023-03-05T07:53:48;39;37;
47705;PMS5003;33471;52.104;1.318;2023-03-05T07:56:20;36;35;
47705;PMS5003;33471;52.104;1.318;2023-03-05T07:58:48;43;41;
47705;PMS5003;33471;52.104;1.318;2023-03-05T08:01:15;37;35;
47705;PMS5003;33471;52.104;1.318;2023-03-05T08:03:43;40;37;
47705;PMS5003;33471;52.104;1.318;2023-03-05T08:06:11;50;39;
47705;PMS5003;33471;52.104;1.318;2023-03-05T08:08:38;41;41;
47705;PMS5003;33471;52.104;1.318;2023-03-05T08:11:05;44;39;
47705;PMS5003;33471;52.104;1.318;2023-03-05T08:13:35;33;32;
47705;PMS5003;33471;52.104;1.318;2023-03-05T08:16:03;42;37;
47705;PMS5003;33471;52.104;1.318;2023-03-05T08:18:31;40;38;
47705;PMS5003;33471;52.104;1.318;2023-03-05T08:20:58;39;36;
47705;PMS5003;33471;52.104;1.318;2023-03-05T08:23:25;46;43;
47705;PMS5003;33471;52.104;1.318;2023-03-05T08:25:54;52;44;
47705;PMS5003;33471;52.104;1.318;2023-03-05T08:28:22;49;36;
47705;PMS5003;33471;52.104;1.318;2023-03-05T08:30:49;35;32;
47705;PMS5003;33471;52.104;1.318;2023-03-05T08:33:16;37;37;
47705;PMS5003;33471;52.104;1.318;2023-03-05T08:35:43;39;38;
47705;PMS5003;33471;52.104;1.318;2023-03-05T08:38:11;40;39;
47705;PMS5003;33471;52.104;1.318;2023-03-05T08:40:38;38;37;
47705;PMS5003;33471;52.104;1.318;2023-03-05T08:43:05;38;31;
47705;PMS5003;33471;52.104;1.318;2023-03-05T08:45:33;40;39;
47705;PMS5003;33471;52.104;1.318;2023-03-05T08:48:00;41;38;
47705;PMS5003;33471;52.104;1.318;2023-03-05T08:50:28;45;36;
47705;PMS5003;33471;52.104;1.318;2023-03-05T08:52:55;41;39;
47705;PMS5003;33471;52.104;1.318;2023-03-05T08:55:23;42;38;
47705;PMS5003;33471;52.104;1.318;2023-03-05T08:57:50;45;40;
47705;PMS5003;33471;52.104;1.318;2023-03-05T09:00:18;45;40;
47705;PMS5003;33471;52.104;1.318;2023-03-05T09:02:46;45;41;
47705;PMS5003;33471;52.104;1.318;2023-03-05T09:05:14;34;31;
47705;PMS5003;33471;52.104;1.318;2023-03-05T09:07:41;40;39;
47705;PMS5003;33471;52.104;1.318;2023-03-05T09:10:08;38;36;
47705;PMS5003;33471;52.104;1.318;2023-03-05T09:12:37;46;43;
47705;PMS5003;33471;52.104;1.318;2023-03-05T09:15:04;37;35;
47705;PMS5003;33471;52.104;1.318;2023-03-05T09:17:33;46;37;
47705;PMS5003;33471;52.104;1.318;2023-03-05T09:20:00;41;37;
47705;PMS5003;33471;52.104;1.318;2023-03-05T09:22:29;43;40;
47705;PMS5003;33471;52.104;1.318;2023-03-05T09:24:56;32;32;
47705;PMS5003;33471;52.104;1.318;2023-03-05T09:27:24;45;41;
47705;PMS5003;33471;52.104;1.318;2023-03-05T09:29:52;43;37;
47705;PMS5003;33471;52.104;1.318;2023-03-05T09:32:19;43;36;
47705;PMS5003;33471;52.104;1.318;2023-03-05T09:34:47;49;42;
47705;PMS5003;33471;52.104;1.318;2023-03-05T09:37:15;45;41;
47705;PMS5003;33471;52.104;1.318;2023-03-05T09:39:42;43;40;
47705;PMS5003;33471;52.104;1.318;2023-03-05T09:42:44;40;38;
47705;PMS5003;33471;52.104;1.318;2023-03-05T09:45:26;42;42;
47705;PMS5003;33471;52.104;1.318;2023-03-05T09:47:58;52;44;
47705;PMS5003;33471;52.104;1.318;2023-03-05T09:50:33;38;38;
47705;PMS5003;33471;52.104;1.318;2023-03-05T09:53:07;41;40;
47705;PMS5003;33471;52.104;1.318;2023-03-05T09:55:43;50;49;
47705;PMS5003;33471;52.104;1.318;2023-03-05T09:58:13;45;40;
47705;PMS5003;33471;52.104;1.318;2023-03-05T10:00:46;46;39;
47705;PMS5003;33471;52.104;1.318;2023-03-05T10:03:18;37;37;
47705;PMS5003;33471;52.104;1.318;2023-03-05T10:05:55;43;39;
47705;PMS5003;33471;52.104;1.318;2023-03-05T10:08:32;44;40;
47705;PMS5003;33471;52.104;1.318;2023-03-05T10:11:14;54;49;
47705;PMS5003;33471;52.104;1.318;2023-03-05T10:13:53;41;38;
47705;PMS5003;33471;52.104;1.318;2023-03-05T10:16:30;46;43;
47705;PMS5003;33471;52.104;1.318;2023-03-05T10:19:13;46;40;
47705;PMS5003;33471;52.104;1.318;2023-03-05T10:21:49;42;41;
47705;PMS5003;33471;52.104;1.318;2023-03-05T10:24:24;40;39;
47705;PMS5003;33471;52.104;1.318;2023-03-05T10:27:07;38;37;
47705;PMS5003;33471;52.104;1.318;2023-03-05T10:29:46;43;43;
47705;PMS5003;33471;52.104;1.318;2023-03-05T10:32:28;50;45;
47705;PMS5003;33471;52.104;1.318;2023-03-05T10:35:11;53;48;
47705;PMS5003;33471;52.104;1.318;2023-03-05T10:38:07;60;55;
47705;PMS5003;33471;52.104;1.318;2023-03-05T10:38:53;60;55;
47705;PMS5003;33471;52.104;1.318;2023-03-05T10:41:36;41;39;
47705;PMS5003;33471;52.104;1.318;2023-03-05T10:44:10;44;39;
47705;PMS5003;33471;52.104;1.318;2023-03-05T10:46:45;46;40;
47705;PMS5003;33471;52.104;1.318;2023-03-05T10:49:16;44;38;
47705;PMS5003;33471;52.104;1.318;2023-03-05T10:51:47;46;38;
47705;PMS5003;33471;52.104;1.318;2023-03-05T10:54:22;38;35;
47705;PMS5003;33471;52.104;1.318;2023-03-05T10:57:01;33;33;
47705;PMS5003;33471;52.104;1.318;2023-03-05T10:59:31;36;34;
47705;PMS5003;33471;52.104;1.318;2023-03-05T11:02:02;36;34;
47705;PMS5003;33471;52.104;1.318;2023-03-05T11:04:33;37;34;
47705;PMS5003;33471;52.104;1.318;2023-03-05T11:07:05;34;31;
47705;PMS5003;33471;52.104;1.318;2023-03-05T11:09:33;36;36;
47705;PMS5003;33471;52.104;1.318;2023-03-05T11:12:04;40;35;
47705;PMS5003;33471;52.104;1.318;2023-03-05T11:14:38;40;35;
47705;PMS5003;33471;52.104;1.318;2023-03-05T11:17:24;32;25;
47705;PMS5003;33471;52.104;1.318;2023-03-05T11:19:54;31;27;
47705;PMS5003;33471;52.104;1.318;2023-03-05T11:22:23;34;32;
47705;PMS5003;33471;52.104;1.318;2023-03-05T11:25:24;35;34;
47705;PMS5003;33471;52.104;1.318;2023-03-05T11:27:53;32;27;
47705;PMS5003;33471;52.104;1.318;2023-03-05T11:30:24;40;36;
47705;PMS5003;33471;52.104;1.318;2023-03-05T11:33:05;36;31;
47705;PMS5003;33471;52.104;1.318;2023-03-05T11:35:35;33;31;
47705;PMS5003;33471;52.104;1.318;2023-03-05T11:38:05;30;29;
47705;PMS5003;33471;52.104;1.318;2023-03-05T11:40:41;27;26;
47705;PMS5003;33471;52.104;1.318;2023-03-05T11:43:08;36;34;
47705;PMS5003;33471;52.104;1.318;2023-03-05T11:45:40;29;29;
47705;PMS5003;33471;52.104;1.318;2023-03-05T11:48:11;30;25;
47705;PMS5003;33471;52.104;1.318;2023-03-05T11:50:48;26;24;
47705;PMS5003;33471;52.104;1.318;2023-03-05T11:53:21;27;25;
47705;PMS5003;33471;52.104;1.318;2023-03-05T11:55:51;25;22;
47705;PMS5003;33471;52.104;1.318;2023-03-05T11:58:26;25;24;
47705;PMS5003;33471;52.104;1.318;2023-03-05T12:00:57;30;30;
47705;PMS5003;33471;52.104;1.318;2023-03-05T12:03:28;28;26;
47705;PMS5003;33471;52.104;1.318;2023-03-05T12:05:59;36;34;
47705;PMS5003;33471;52.104;1.318;2023-03-05T12:08:35;32;32;
47705;PMS5003;33471;52.104;1.318;2023-03-05T12:11:06;31;28;
47705;PMS5003;33471;52.104;1.318;2023-03-05T12:13:40;31;28;
47705;PMS5003;33471;52.104;1.318;2023-03-05T12:16:13;33;33;
47705;PMS5003;33471;52.104;1.318;2023-03-05T12:18:50;32;31;
47705;PMS5003;33471;52.104;1.318;2023-03-05T12:21:25;29;27;
47705;PMS5003;33471;52.104;1.318;2023-03-05T12:23:59;27;24;
47705;PMS5003;33471;52.104;1.318;2023-03-05T12:27:29;22;20;
47705;PMS5003;33471;52.104;1.318;2023-03-05T12:29:58;19;18;
47705;PMS5003;33471;52.104;1.318;2023-03-05T12:32:50;33;30;
47705;PMS5003;33471;52.104;1.318;2023-03-05T12:35:22;29;27;
47705;PMS5003;33471;52.104;1.318;2023-03-05T12:38:28;20;20;
47705;PMS5003;33471;52.104;1.318;2023-03-05T12:42:10;25;23;
47705;PMS5003;33471;52.104;1.318;2023-03-05T12:45:44;25;23;
47705;PMS5003;33471;52.104;1.318;2023-03-05T12:48:43;25;24;
47705;PMS5003;33471;52.104;1.318;2023-03-05T12:51:12;28;28;
47705;PMS5003;33471;52.104;1.318;2023-03-05T12:53:52;26;26;
47705;PMS5003;33471;52.104;1.318;2023-03-05T12:56:21;21;20;
47705;PMS5003;33471;52.104;1.318;2023-03-05T12:58:52;23;23;
47705;PMS5003;33471;52.104;1.318;2023-03-05T13:01:28;27;20;
47705;PMS5003;33471;52.104;1.318;2023-03-05T13:04:03;30;26;
47705;PMS5003;33471;52.104;1.318;2023-03-05T13:06:33;26;22;
47705;PMS5003;33471;52.104;1.318;2023-03-05T13:09:03;23;23;
47705;PMS5003;33471;52.104;1.318;2023-03-05T13:11:42;29;25;
47705;PMS5003;33471;52.104;1.318;2023-03-05T13:14:29;22;22;
47705;PMS5003;33471;52.104;1.318;2023-03-05T13:17:01;19;18;
47705;PMS5003;33471;52.104;1.318;2023-03-05T13:19:49;27;25;
47705;PMS5003;33471;52.104;1.318;2023-03-05T13:22:17;24;21;
47705;PMS5003;33471;52.104;1.318;2023-03-05T13:24:44;26;22;
47705;PMS5003;33471;52.104;1.318;2023-03-05T13:27:23;22;21;
47705;PMS5003;33471;52.104;1.318;2023-03-05T13:29:54;29;27;
47705;PMS5003;33471;52.104;1.318;2023-03-05T13:32:24;24;23;
47705;PMS5003;33471;52.104;1.318;2023-03-05T13:34:53;31;29;
47705;PMS5003;33471;52.104;1.318;2023-03-05T13:37:23;27;26;
47705;PMS5003;33471;52.104;1.318;2023-03-05T13:39:54;26;24;
47705;PMS5003;33471;52.104;1.318;2023-03-05T13:42:24;29;23;
47705;PMS5003;33471;52.104;1.318;2023-03-05T13:44:52;27;26;
47705;PMS5003;33471;52.104;1.318;2023-03-05T13:47:22;29;25;
47705;PMS5003;33471;52.104;1.318;2023-03-05T13:49:55;28;28;
47705;PMS5003;33471;52.104;1.318;2023-03-05T13:52:23;39;33;
47705;PMS5003;33471;52.104;1.318;2023-03-05T13:54:51;24;21;
47705;PMS5003;33471;52.104;1.318;2023-03-05T13:57:36;28;25;
47705;PMS5003;33471;52.104;1.318;2023-03-05T14:00:05;24;22;
47705;PMS5003;33471;52.104;1.318;2023-03-05T14:02:51;27;23;
47705;PMS5003;33471;52.104;1.318;2023-03-05T14:05:18;24;23;
47705;PMS5003;33471;52.104;1.318;2023-03-05T14:07:47;22;20;
47705;PMS5003;33471;52.104;1.318;2023-03-05T14:10:30;28;27;
47705;PMS5003;33471;52.104;1.318;2023-03-05T14:13:01;30;27;
47705;PMS5003;33471;52.104;1.318;2023-03-05T14:15:31;28;26;
47705;PMS5003;33471;52.104;1.318;2023-03-05T14:18:14;30;28;
47705;PMS5003;33471;52.104;1.318;2023-03-05T14:20:57;28;24;
47705;PMS5003;33471;52.104;1.318;2023-03-05T14:23:32;26;24;
47705;PMS5003;33471;52.104;1.318;2023-03-05T14:26:10;30;27;
47705;PMS5003;33471;52.104;1.318;2023-03-05T14:28:49;24;20;
47705;PMS5003;33471;52.104;1.318;2023-03-05T14:31:18;30;30;
47705;PMS5003;33471;52.104;1.318;2023-03-05T14:33:46;29;27;
47705;PMS5003;33471;52.104;1.318;2023-03-05T14:36:19;31;29;
47705;PMS5003;33471;52.104;1.318;2023-03-05T14:38:49;31;26;
47705;PMS5003;33471;52.104;1.318;2023-03-05T14:41:19;30;27;
47705;PMS5003;33471;52.104;1.318;2023-03-05T14:43:57;30;28;
47705;PMS5003;33471;52.104;1.318;2023-03-05T14:46:25;21;21;
47705;PMS5003;33471;52.104;1.318;2023-03-05T14:48:52;30;24;
47705;PMS5003;33471;52.104;1.318;2023-03-05T14:51:20;20;16;
47705;PMS5003;33471;52.104;1.318;2023-03-05T14:53:47;27;26;
47705;PMS5003;33471;52.104;1.318;2023-03-05T14:56:16;27;26;
47705;PMS5003;33471;52.104;1.318;2023-03-05T14:58:47;23;22;
47705;PMS5003;33471;52.104;1.318;2023-03-05T15:01:15;23;22;
47705;PMS5003;33471;52.104;1.318;2023-03-05T15:03:42;23;22;
47705;PMS5003;33471;52.104;1.318;2023-03-05T15:06:13;24;21;
47705;PMS5003;33471;52.104;1.318;2023-03-05T15:08:45;22;21;
47705;PMS5003;33471;52.104;1.318;2023-03-05T15:11:12;23;22;
47705;PMS5003;33471;52.104;1.318;2023-03-05T15:13:40;25;22;
47705;PMS5003;33471;52.104;1.318;2023-03-05T15:16:07;31;24;
47705;PMS5003;33471;52.104;1.318;2023-03-05T15:18:40;30;30;
47705;PMS5003;33471;52.104;1.318;2023-03-05T15:21:07;34;31;
47705;PMS5003;33471;52.104;1.318;2023-03-05T15:23:35;28;28;
47705;PMS5003;33471;52.104;1.318;2023-03-05T15:26:03;21;21;
47705;PMS5003;33471;52.104;1.318;2023-03-05T15:28:31;25;23;
47705;PMS5003;33471;52.104;1.318;2023-03-05T15:30:59;30;25;
47705;PMS5003;33471;52.104;1.318;2023-03-05T15:33:27;27;25;
47705;PMS5003;33471;52.104;1.318;2023-03-05T15:35:55;26;24;
47705;PMS5003;33471;52.104;1.318;2023-03-05T15:38:22;28;28;
47705;PMS5003;33471;52.104;1.318;2023-03-05T15:40:50;24;21;
47705;PMS5003;33471;52.104;1.318;2023-03-05T15:43:18;28;27;
47705;PMS5003;33471;52.104;1.318;2023-03-05T15:45:46;28;27;
47705;PMS5003;33471;52.104;1.318;2023-03-05T15:48:14;21;20;
47705;PMS5003;33471;52.104;1.318;2023-03-05T15:50:41;30;24;
47705;PMS5003;33471;52.104;1.318;2023-03-05T15:53:09;21;19;
47705;PMS5003;33471;52.104;1.318;2023-03-05T15:55:39;24;23;
47705;PMS5003;33471;52.104;1.318;2023-03-05T15:58:07;31;27;
47705;PMS5003;33471;52.104;1.318;2023-03-05T16:00:35;26;26;
47705;PMS5003;33471;52.104;1.318;2023-03-05T16:03:03;26;23;
47705;PMS5003;33471;52.104;1.318;2023-03-05T16:05:31;28;27;
47705;PMS5003;33471;52.104;1.318;2023-03-05T16:07:59;16;14;
47705;PMS5003;33471;52.104;1.318;2023-03-05T16:10:28;26;23;
47705;PMS5003;33471;52.104;1.318;2023-03-05T16:12:59;16;15;
47705;PMS5003;33471;52.104;1.318;2023-03-05T16:15:29;23;22;
47705;PMS5003;33471;52.104;1.318;2023-03-05T16:17:58;22;20;
47705;PMS5003;33471;52.104;1.318;2023-03-05T16:20:28;16;16;
47705;PMS5003;33471;52.104;1.318;2023-03-05T16:22:55;20;20;
47705;PMS5003;33471;52.104;1.318;2023-03-05T16:25:22;22;21;
47705;PMS5003;33471;52.104;1.318;2023-03-05T16:27:49;16;16;
47705;PMS5003;33471;52.104;1.318;2023-03-05T16:30:17;18;18;
47705;PMS5003;33471;52.104;1.318;2023-03-05T16:32:44;20;16;
47705;PMS5003;33471;52.104;1.318;2023-03-05T16:35:12;30;25;
47705;PMS5003;33471;52.104;1.318;2023-03-05T16:37:40;23;23;